Time;durP1;ratioP1;P1;durP2;ratioP2;P2;SDS_P1;SDS_P2;PMS_P1;PMS_P2;Temp;Humidity;BMP_temperature;BMP_pressure;BME280_temperature;BME280_humidity;BME280_pressure;Samples;Min_cycle;Max_cycle;Signal;HPM_P1;HPM_P2
2021/11/05 00:01:16;;;;;;;8.70;4.40;;;;;;;13.76;76.43;97427.94;116358;1180;58723;-63
2021/11/05 00:03:46;;;;;;;5.80;4.30;;;;;;;13.78;73.63;97412.25;116374;1180;71168;-64
2021/11/05 00:06:15;;;;;;;6.40;5.00;;;;;;;13.79;74.14;97403.77;116291;1181;68418;-63
2021/11/05 00:08:45;;;;;;;6.80;4.30;;;;;;;13.73;75.43;97396.48;116369;1181;68480;-64
2021/11/05 00:11:15;;;;;;;6.50;5.00;;;;;;;13.71;74.87;97399.85;116333;1181;58760;-65
2021/11/05 00:13:45;;;;;;;7.30;5.50;;;;;;;13.67;75.33;97400.17;116336;1180;58726;-65
2021/11/05 00:16:14;;;;;;;6.90;4.20;;;;;;;13.65;73.58;97397.77;116372;1180;70607;-65
2021/11/05 00:18:44;;;;;;;5.60;4.60;;;;;;;13.66;72.85;97396.57;116366;1180;68333;-65
2021/11/05 00:21:13;;;;;;;8.30;4.90;;;;;;;13.70;73.59;97384.45;116368;1180;68595;-63
2021/11/05 00:23:44;;;;;;;9.30;5.00;;;;;;;13.72;73.54;97380.98;116420;1181;58722;-64
2021/11/05 00:26:13;;;;;;;8.20;4.80;;;;;;;13.71;73.47;97376.02;116398;1180;58747;-64
2021/11/05 00:28:43;;;;;;;8.80;5.80;;;;;;;13.71;74.14;97372.83;116337;1180;70570;-63
2021/11/05 00:31:13;;;;;;;8.60;6.30;;;;;;;13.67;74.62;97366.69;116316;1181;67536;-64
2021/11/05 00:33:43;;;;;;;10.00;6.40;;;;;;;13.63;74.65;97364.40;116362;1180;68317;-64
2021/11/05 00:36:14;;;;;;;8.20;5.60;;;;;;;13.54;75.74;97362.39;116435;1180;58760;-64
2021/11/05 00:38:45;;;;;;;8.90;6.90;;;;;;;13.41;77.32;97369.14;116417;1181;58707;-64
2021/11/05 00:41:16;;;;;;;8.90;5.50;;;;;;;13.32;77.19;97370.83;116351;1180;70400;-64
2021/11/05 00:43:46;;;;;;;10.40;7.30;;;;;;;13.26;76.19;97371.95;116340;1180;68223;-63
2021/11/05 00:46:16;;;;;;;12.20;8.00;;;;;;;13.19;78.00;97381.47;116365;1180;69275;-64
2021/11/05 00:48:46;;;;;;;9.70;5.80;;;;;;;13.13;78.20;97388.64;116392;1181;59150;-64
2021/11/05 00:51:16;;;;;;;7.00;5.40;;;;;;;13.12;77.26;97399.34;116356;1182;58735;-65
2021/11/05 00:53:47;;;;;;;9.40;5.40;;;;;;;13.12;77.32;97415.63;116346;1180;70602;-65
2021/11/05 00:56:16;;;;;;;10.90;6.70;;;;;;;13.04;78.98;97434.13;116445;1181;68408;-63
2021/11/05 00:58:47;;;;;;;9.00;5.70;;;;;;;13.02;77.26;97428.02;116383;1180;68874;-65
2021/11/05 01:01:17;;;;;;;8.80;6.40;;;;;;;12.98;78.21;97399.88;116384;1180;58806;-63
2021/11/05 01:03:47;;;;;;;8.20;5.90;;;;;;;12.89;80.64;97382.44;116331;1181;59179;-63
2021/11/05 01:06:18;;;;;;;9.10;6.20;;;;;;;12.83;81.44;97373.61;116364;1180;70585;-63
2021/11/05 01:08:48;;;;;;;8.30;5.50;;;;;;;12.77;82.41;97366.95;116377;1181;68389;-64
2021/11/05 01:11:17;;;;;;;7.30;4.90;;;;;;;12.85;80.20;97372.60;116425;1180;68419;-64
2021/11/05 01:13:47;;;;;;;7.50;5.40;;;;;;;12.92;79.24;97367.44;116253;1184;58860;-64
2021/11/05 01:16:17;;;;;;;;;;;;;;;12.95;78.60;97358.77;116441;1180;58741;-64
2021/11/05 01:18:47;;;;;;;9.80;6.30;;;;;;;12.93;79.51;97351.14;116351;1181;70564;-65
2021/11/05 01:21:17;;;;;;;9.80;6.30;;;;;;;12.77;81.47;97352.08;116419;1180;67833;-64
2021/11/05 01:23:47;;;;;;;;;;;;;;;12.70;82.14;97353.91;116437;1180;69056;-64
2021/11/05 01:26:17;;;;;;;9.20;4.90;;;;;;;12.65;81.50;97357.07;116447;1180;58757;-64
2021/11/05 01:28:47;;;;;;;7.70;5.80;;;;;;;12.67;79.45;97358.14;116351;1181;58775;-65
2021/11/05 01:31:18;;;;;;;11.60;7.10;;;;;;;12.60;79.95;97362.91;116429;1180;69767;-64
2021/11/05 01:33:47;;;;;;;7.80;4.50;;;;;;;12.52;79.12;97363.21;116472;1180;66892;-65
2021/11/05 01:36:17;;;;;;;11.40;7.20;;;;;;;12.46;78.45;97367.87;116334;1181;68443;-63
2021/11/05 01:38:47;;;;;;;10.60;6.90;;;;;;;12.42;79.89;97372.63;116495;1180;58735;-64
2021/11/05 01:41:18;;;;;;;10.10;6.30;;;;;;;12.32;82.04;97366.27;116348;1182;59154;-64
2021/11/05 01:43:48;;;;;;;9.40;5.80;;;;;;;12.26;82.59;97370.92;116387;1181;70396;-65
2021/11/05 01:46:19;;;;;;;5.60;4.00;;;;;;;12.22;81.43;97370.02;116399;1180;67477;-64
2021/11/05 01:48:49;;;;;;;7.00;5.10;;;;;;;12.25;79.83;97363.14;116325;1180;68408;-65
2021/11/05 01:51:19;;;;;;;10.00;5.20;;;;;;;12.31;79.66;97354.50;116362;1180;58732;-65
2021/11/05 01:53:48;;;;;;;10.00;5.70;;;;;;;12.34;79.26;97348.05;116371;1181;58777;-64
2021/11/05 01:56:19;;;;;;;6.30;4.90;;;;;;;12.37;79.06;97350.59;116396;1180;69635;-65
2021/11/05 01:58:48;;;;;;;7.90;5.80;;;;;;;12.38;79.86;97356.48;116425;1176;68250;-64
2021/11/05 02:01:18;;;;;;;9.80;6.80;;;;;;;12.38;79.44;97351.59;116434;1181;69309;-64
2021/11/05 02:03:50;;;;;;;10.30;7.50;;;;;;;12.37;80.21;97351.34;116391;1180;58751;-63
2021/11/05 02:06:22;;;;;;;9.00;6.20;;;;;;;12.35;81.45;97350.99;116394;1181;58726;-64
2021/11/05 02:08:53;;;;;;;11.60;7.90;;;;;;;12.32;81.85;97353.52;116394;1180;70629;-62
2021/11/05 02:11:23;;;;;;;8.70;7.10;;;;;;;12.27;82.17;97354.44;116430;1180;67639;-65
2021/11/05 02:13:55;;;;;;;9.10;5.90;;;;;;;12.24;82.10;97358.13;116424;1181;69251;-63
2021/11/05 02:16:25;;;;;;;12.40;7.30;;;;;;;12.23;81.84;97368.36;116330;1182;58755;-63
2021/11/05 02:18:55;;;;;;;6.60;5.50;;;;;;;12.21;82.23;97378.98;116413;1180;58753;-63
2021/11/05 02:21:37;;;;;;;10.60;7.10;;;;;;;12.20;80.13;97384.33;116428;1180;69808;-62
2021/11/05 02:24:09;;;;;;;10.20;7.70;;;;;;;12.05;81.58;97402.95;116372;1180;68451;-62
2021/11/05 02:26:39;;;;;;;9.90;6.60;;;;;;;11.78;83.69;97417.16;116379;1181;68277;-63
2021/11/05 02:29:11;;;;;;;11.90;7.30;;;;;;;11.66;84.45;97424.52;116403;1180;58746;-65
2021/11/05 02:31:42;;;;;;;7.30;4.90;;;;;;;11.58;84.70;97434.33;116401;1181;58743;-64
2021/11/05 02:34:12;;;;;;;6.50;4.60;;;;;;;11.74;82.55;97441.54;116370;1181;70354;-65
2021/11/05 02:36:43;;;;;;;5.00;3.50;;;;;;;11.79;81.83;97434.86;116400;1180;68562;-65
2021/11/05 02:39:14;;;;;;;7.40;4.70;;;;;;;11.83;81.25;97425.11;116356;1182;69252;-65
2021/11/05 02:41:46;;;;;;;8.40;5.70;;;;;;;11.85;83.03;97421.83;116387;1181;58772;-63
2021/11/05 02:44:16;;;;;;;7.90;5.70;;;;;;;11.82;84.70;97429.23;116401;1180;58740;-63
2021/11/05 02:46:46;;;;;;;9.30;5.70;;;;;;;11.79;84.71;97432.95;116367;1180;70403;-63
2021/11/05 02:49:16;;;;;;;7.30;4.20;;;;;;;11.77;84.55;97427.51;116411;1181;68332;-63
2021/11/05 02:51:49;;;;;;;7.20;4.80;;;;;;;11.75;83.39;97422.44;116417;1180;69327;-64
2021/11/05 02:54:19;;;;;;;8.50;6.00;;;;;;;11.73;82.11;97413.79;116439;1180;58753;-65
2021/11/05 02:56:49;;;;;;;9.10;7.10;;;;;;;11.79;82.22;97402.42;116372;1180;58700;-64
2021/11/05 02:59:19;;;;;;;8.60;4.60;;;;;;;11.69;85.47;97394.91;116383;1180;70418;-64
2021/11/05 03:01:48;;;;;;;7.20;5.60;;;;;;;11.72;83.30;97401.98;116307;1182;68489;-64
2021/11/05 03:04:21;;;;;;;;;;;;;;;11.72;82.64;97403.05;116325;1181;69307;-64
2021/11/05 03:06:59;;;;;;;8.80;5.80;;;;;;;11.75;82.56;97399.91;116380;1182;58763;-63
2021/11/05 03:09:39;;;;;;;7.30;5.30;;;;;;;11.79;82.75;97405.55;116437;1180;58731;-64
2021/11/05 03:12:11;;;;;;;8.30;4.80;;;;;;;11.80;82.36;97425.21;116409;1180;69696;-64
2021/11/05 03:14:43;;;;;;;10.20;6.30;;;;;;;11.81;81.77;97424.40;116334;1181;68487;-63
2021/11/05 03:17:13;;;;;;;8.50;5.10;;;;;;;11.81;82.30;97429.45;116370;1181;69382;-65
2021/11/05 03:19:43;;;;;;;9.90;7.00;;;;;;;11.81;82.41;97434.39;116355;1180;58794;-65
2021/11/05 03:22:12;;;;;;;;;;;;;;;11.78;83.21;97425.85;116432;1180;58702;-63
2021/11/05 03:24:42;;;;;;;12.50;8.30;;;;;;;11.75;82.52;97432.21;116409;1181;70148;-63
2021/11/05 03:27:12;;;;;;;;;;;;;;;11.74;82.89;97456.73;116373;1181;67504;-64
2021/11/05 03:29:43;;;;;;;7.10;4.30;;;;;;;11.75;81.49;97470.96;116420;1180;69282;-63
2021/11/05 03:32:12;;;;;;;9.50;7.20;;;;;;;11.75;81.47;97491.20;116347;1182;58774;-64
2021/11/05 03:34:42;;;;;;;11.90;7.30;;;;;;;11.52;85.01;97531.67;116435;1180;58696;-65
2021/11/05 03:37:12;;;;;;;14.90;9.50;;;;;;;11.42;86.81;97568.73;116346;1182;69220;-62
2021/11/05 03:39:42;;;;;;;13.70;9.30;;;;;;;11.46;87.80;97577.66;116457;1180;68620;-65
2021/11/05 03:42:12;;;;;;;12.70;8.40;;;;;;;11.59;88.34;97546.15;116382;1181;69368;-62
2021/11/05 03:44:43;;;;;;;11.70;6.80;;;;;;;11.69;87.91;97532.86;116373;1181;58776;-64
2021/11/05 03:47:12;;;;;;;12.10;9.00;;;;;;;11.77;87.49;97517.94;116404;1180;58760;-63
2021/11/05 03:49:42;;;;;;;;;;;;;;;11.81;88.45;97487.63;116398;1180;71229;-63
2021/11/05 03:52:12;;;;;;;7.70;5.30;;;;;;;11.82;87.34;97485.12;116412;1180;67687;-64
2021/11/05 03:54:43;;;;;;;11.60;6.60;;;;;;;11.86;85.39;97469.81;116320;1182;69222;-64
2021/11/05 03:57:13;;;;;;;11.10;7.70;;;;;;;11.81;84.60;97461.65;116518;1180;58748;-64
2021/11/05 03:59:43;;;;;;;11.00;7.10;;;;;;;11.73;84.13;97444.33;116351;1181;58723;-62
2021/11/05 04:02:12;;;;;;;11.90;7.30;;;;;;;11.70;84.58;97438.67;116405;1180;69746;-63
2021/11/05 04:04:42;;;;;;;9.30;5.90;;;;;;;11.62;84.41;97443.50;116381;1180;67778;-63
2021/11/05 04:07:12;;;;;;;10.80;7.60;;;;;;;11.57;84.08;97441.27;116358;1180;68825;-63
2021/11/05 04:09:42;;;;;;;9.90;7.20;;;;;;;11.52;84.34;97450.52;116405;1180;58752;-63
2021/11/05 04:12:12;;;;;;;13.10;8.80;;;;;;;11.51;84.30;97447.63;116381;1180;58749;-65
2021/11/05 04:14:42;;;;;;;11.40;7.50;;;;;;;11.48;85.10;97441.10;116390;1181;68844;-63
2021/11/05 04:17:16;;;;;;;11.30;7.90;;;;;;;11.45;85.90;97426.30;116403;1180;68432;-63
2021/11/05 04:19:46;;;;;;;13.10;8.80;;;;;;;11.42;85.53;97419.34;116331;1181;68476;-63
2021/11/05 04:22:16;;;;;;;10.60;8.30;;;;;;;11.39;85.23;97414.22;116369;1180;58779;-65
2021/11/05 04:24:46;;;;;;;11.40;8.20;;;;;;;11.32;84.70;97411.20;116373;1180;58719;-65
2021/11/05 04:27:16;;;;;;;13.10;9.60;;;;;;;11.25;85.34;97417.83;116395;1181;70571;-65
2021/11/05 04:29:46;;;;;;;19.50;12.30;;;;;;;11.17;85.45;97428.17;116412;1180;67483;-64
2021/11/05 04:32:17;;;;;;;13.60;10.60;;;;;;;11.07;87.07;97425.85;116355;1180;69232;-63
2021/11/05 04:34:47;;;;;;;14.30;10.10;;;;;;;11.07;85.80;97421.31;116350;1184;58778;-64
2021/11/05 04:37:17;;;;;;;10.60;7.90;;;;;;;11.03;85.73;97412.55;116356;1184;58792;-63
2021/11/05 04:39:47;;;;;;;13.10;11.00;;;;;;;10.99;86.01;97411.27;116382;1182;70426;-63
2021/11/05 04:42:16;;;;;;;13.50;8.20;;;;;;;10.95;87.02;97407.73;116337;1180;67666;-63
2021/11/05 04:44:46;;;;;;;7.40;5.30;;;;;;;10.92;85.90;97413.86;116365;1180;68586;-63
2021/11/05 04:47:16;;;;;;;7.70;4.80;;;;;;;10.89;85.21;97420.17;116419;1180;58748;-63
2021/11/05 04:49:46;;;;;;;12.70;9.20;;;;;;;10.84;85.68;97421.24;116309;1182;58752;-65
2021/11/05 04:52:16;;;;;;;16.90;13.00;;;;;;;10.77;87.10;97425.60;116310;1182;70549;-64
2021/11/05 04:54:46;;;;;;;15.70;11.60;;;;;;;10.68;88.06;97426.42;116220;1182;67876;-63
2021/11/05 04:57:15;;;;;;;15.80;10.90;;;;;;;10.60;88.47;97417.58;116380;1180;69262;-65
2021/11/05 04:59:45;;;;;;;10.70;7.30;;;;;;;10.58;87.89;97418.05;116422;1180;58718;-63
2021/11/05 05:02:16;;;;;;;14.40;10.00;;;;;;;10.56;87.79;97416.52;116343;1180;58773;-64
2021/11/05 05:04:46;;;;;;;14.70;9.20;;;;;;;10.51;88.47;97419.11;116390;1181;70577;-63
2021/11/05 05:07:17;;;;;;;13.80;10.70;;;;;;;10.49;88.18;97414.59;116394;1180;68404;-65
2021/11/05 05:09:46;;;;;;;10.80;6.40;;;;;;;10.44;88.54;97408.83;116350;1180;68453;-65
2021/11/05 05:12:16;;;;;;;13.50;10.10;;;;;;;10.43;87.65;97411.85;116356;1182;58722;-63
2021/11/05 05:14:46;;;;;;;17.50;10.90;;;;;;;10.41;88.79;97414.30;116423;1180;58751;-63
2021/11/05 05:17:15;;;;;;;16.40;11.00;;;;;;;10.40;89.03;97411.24;116328;1180;70593;-66
2021/11/05 05:19:45;;;;;;;21.40;15.90;;;;;;;10.39;89.24;97407.10;116380;1180;67719;-64
2021/11/05 05:22:14;;;;;;;24.00;15.20;;;;;;;10.39;89.15;97404.85;116327;1182;70418;-63
2021/11/05 05:24:44;;;;;;;25.00;18.00;;;;;;;10.37;88.87;97402.36;116340;1181;58960;-65
2021/11/05 05:27:14;;;;;;;22.90;17.80;;;;;;;10.37;88.12;97401.17;116434;1181;58723;-65
2021/11/05 05:29:44;;;;;;;23.50;18.10;;;;;;;10.37;87.97;97403.41;116368;1180;70629;-65
2021/11/05 05:32:14;;;;;;;28.00;17.50;;;;;;;10.38;89.21;97403.01;116286;1182;67918;-64
2021/11/05 05:34:43;;;;;;;18.00;13.60;;;;;;;10.40;89.47;97398.34;116287;1182;69853;-64
2021/11/05 05:37:13;;;;;;;18.20;12.80;;;;;;;10.42;89.39;97402.14;116351;1181;58734;-65
2021/11/05 05:39:43;;;;;;;20.90;14.00;;;;;;;10.47;89.01;97399.77;116425;1183;58722;-64
2021/11/05 05:42:12;;;;;;;16.30;12.60;;;;;;;10.51;89.60;97402.08;116384;1172;69890;-67
2021/11/05 05:44:41;;;;;;;12.70;8.70;;;;;;;10.55;89.47;97404.55;116331;1180;67721;-64
2021/11/05 05:47:11;;;;;;;8.60;6.80;;;;;;;10.60;88.62;97409.77;116213;1181;68737;-65
2021/11/05 05:49:40;;;;;;;15.60;11.10;;;;;;;10.66;87.74;97409.99;116360;1180;58700;-65
2021/11/05 05:52:09;;;;;;;12.80;9.80;;;;;;;10.73;87.61;97407.27;116357;1182;58748;-66
2021/11/05 05:54:39;;;;;;;12.60;10.30;;;;;;;10.79;88.07;97414.34;116366;1180;70456;-63
2021/11/05 05:57:09;;;;;;;14.40;9.40;;;;;;;10.85;87.91;97428.14;116375;1181;68359;-64
2021/11/05 05:59:38;;;;;;;12.40;10.10;;;;;;;10.90;88.02;97441.71;116334;1180;69900;-65
2021/11/05 06:02:07;;;;;;;11.50;8.00;;;;;;;10.96;87.85;97444.60;116319;1181;58713;-65
2021/11/05 06:04:37;;;;;;;9.10;6.40;;;;;;;11.02;87.76;97442.60;116327;1182;58750;-65
2021/11/05 06:07:06;;;;;;;9.60;7.70;;;;;;;11.09;86.83;97435.81;116345;1182;70947;-66
2021/11/05 06:09:36;;;;;;;13.90;9.80;;;;;;;11.15;86.27;97427.65;116363;1180;67907;-64
2021/11/05 06:12:06;;;;;;;18.70;14.20;;;;;;;11.19;86.95;97433.80;116343;1180;69247;-64
2021/11/05 06:14:34;;;;;;;19.80;15.90;;;;;;;11.08;86.91;97442.68;116352;1180;58681;-66
2021/11/05 06:17:04;;;;;;;21.70;16.30;;;;;;;11.06;86.88;97448.73;116433;1172;58729;-65
2021/11/05 06:19:34;;;;;;;22.40;15.90;;;;;;;10.98;87.22;97453.91;116544;1180;70496;-66
2021/11/05 06:22:04;;;;;;;26.10;17.40;;;;;;;11.06;87.68;97452.25;116452;1181;67723;-64
2021/11/05 06:24:33;;;;;;;29.70;19.80;;;;;;;11.10;87.54;97454.88;116458;1181;68585;-66
2021/11/05 06:27:03;;;;;;;23.90;17.10;;;;;;;11.02;87.58;97454.31;116420;1183;58801;-63
2021/11/05 06:29:32;;;;;;;18.70;14.10;;;;;;;11.12;87.22;97462.27;116351;1180;58792;-65
2021/11/05 06:32:01;;;;;;;16.50;10.90;;;;;;;11.24;86.55;97465.35;116410;1180;70594;-64
2021/11/05 06:34:30;;;;;;;17.00;12.70;;;;;;;11.41;86.60;97474.73;116411;1180;68120;-63
2021/11/05 06:37:00;;;;;;;22.60;16.60;;;;;;;11.66;86.45;97483.98;116354;1180;68645;-63
2021/11/05 06:39:29;;;;;;;15.20;10.40;;;;;;;11.94;84.75;97489.95;116357;1180;58711;-64
2021/11/05 06:41:59;;;;;;;14.10;11.00;;;;;;;12.27;84.31;97488.23;116358;1182;58787;-65
2021/11/05 06:44:35;;;;;;;11.10;7.60;;;;;;;12.78;84.06;97488.25;116396;1172;70994;-64
2021/11/05 06:47:05;;;;;;;12.40;9.10;;;;;;;13.37;82.37;97487.98;116395;1181;68480;-64
2021/11/05 06:49:34;;;;;;;11.80;10.30;;;;;;;13.91;79.12;97492.02;116371;1180;69270;-64
2021/11/05 06:52:04;;;;;;;14.50;8.90;;;;;;;14.32;77.24;97491.70;116314;1181;58761;-63
2021/11/05 06:54:34;;;;;;;9.90;7.60;;;;;;;14.79;78.85;97495.11;116345;1180;58749;-64
2021/11/05 06:57:07;;;;;;;9.90;6.20;;;;;;;15.19;78.20;97487.70;116392;1180;70529;-64
2021/11/05 06:59:37;;;;;;;8.00;6.40;;;;;;;15.71;78.19;97493.13;116398;1180;68516;-65
2021/11/05 07:02:07;;;;;;;7.30;6.20;;;;;;;16.31;77.49;97498.05;116386;1180;67927;-64
2021/11/05 07:04:36;;;;;;;7.60;5.90;;;;;;;16.90;75.50;97500.98;116366;1180;58709;-64
2021/11/05 07:07:05;;;;;;;7.70;5.90;;;;;;;17.51;74.96;97491.13;116294;1180;58784;-63
2021/11/05 07:09:35;;;;;;;14.10;10.70;;;;;;;18.08;71.82;97487.16;116434;1180;71027;-63
2021/11/05 07:12:04;;;;;;;;;;;;;;;18.20;64.83;97488.60;116418;1180;68837;-64
2021/11/05 07:14:34;;;;;;;15.90;12.10;;;;;;;18.45;64.30;97495.37;116335;1180;68520;-63
2021/11/05 07:17:03;;;;;;;9.00;7.60;;;;;;;18.77;63.68;97500.64;116396;1181;58752;-64
2021/11/05 07:19:33;;;;;;;10.70;8.00;;;;;;;19.25;63.85;97502.65;116292;1177;58748;-64
2021/11/05 07:22:03;;;;;;;10.00;7.70;;;;;;;19.67;62.46;97503.65;116313;1180;69813;-64
2021/11/05 07:24:36;;;;;;;15.20;10.60;;;;;;;19.90;58.27;97510.70;116373;1180;68972;-65
2021/11/05 07:27:06;;;;;;;11.80;10.50;;;;;;;19.60;57.96;97515.51;116398;1180;69476;-63
2021/11/05 07:29:35;;;;;;;8.40;6.90;;;;;;;20.03;57.38;97515.00;116370;1180;58692;-65
2021/11/05 07:32:08;;;;;;;11.20;8.90;;;;;;;20.57;57.59;97509.54;116377;1180;58721;-65
2021/11/05 07:34:38;;;;;;;7.40;6.50;;;;;;;20.28;55.21;97516.27;116429;1180;70595;-65
2021/11/05 07:37:16;;;;;;;7.20;5.60;;;;;;;20.93;56.41;97517.77;116391;1180;68762;-65
2021/11/05 07:39:46;;;;;;;12.00;7.50;;;;;;;21.44;54.90;97517.31;116380;1180;69771;-63
2021/11/05 07:42:16;;;;;;;8.70;6.70;;;;;;;21.83;52.73;97513.29;116372;1180;58732;-63
2021/11/05 07:44:45;;;;;;;;;;;;;;;22.06;51.55;97514.18;116401;1180;58703;-64
2021/11/05 07:47:21;;;;;;;11.80;8.80;;;;;;;22.20;50.86;97507.37;116404;1180;70649;-63
2021/11/05 07:49:51;;;;;;;8.80;6.60;;;;;;;21.49;51.41;97493.68;116385;1180;69157;-65
2021/11/05 07:52:20;;;;;;;12.30;7.20;;;;;;;21.85;51.02;97481.27;116395;1180;68672;-63
2021/11/05 07:54:50;;;;;;;10.00;8.30;;;;;;;22.17;49.88;97486.23;116368;1180;58825;-63
2021/11/05 07:57:23;;;;;;;10.90;8.40;;;;;;;22.18;49.56;97484.66;116355;1171;59174;-63
2021/11/05 07:59:54;;;;;;;7.00;5.80;;;;;;;22.48;49.45;97487.98;116359;1180;70632;-65
2021/11/05 08:02:24;;;;;;;7.90;5.60;;;;;;;22.77;48.35;97496.63;116422;1180;68168;-65
2021/11/05 08:04:53;;;;;;;9.70;7.70;;;;;;;22.90;47.38;97504.98;116289;1180;69668;-65
2021/11/05 08:07:23;;;;;;;8.10;5.70;;;;;;;22.05;47.95;97492.47;116380;1180;59211;-65
2021/11/05 08:09:52;;;;;;;7.50;6.40;;;;;;;22.71;47.61;97482.24;116420;1177;58762;-64
2021/11/05 08:12:21;;;;;;;;;;;;;;;23.01;46.72;97472.77;116406;1180;70602;-65
2021/11/05 08:14:50;;;;;;;8.10;5.40;;;;;;;23.47;46.11;97468.56;116441;1180;66669;-65
2021/11/05 08:17:19;;;;;;;6.30;4.60;;;;;;;24.08;46.16;97469.84;116363;1180;69615;-63
2021/11/05 08:19:49;;;;;;;11.20;7.60;;;;;;;24.72;44.91;97464.86;116381;1180;58734;-63
2021/11/05 08:22:19;;;;;;;10.50;7.00;;;;;;;24.30;42.84;97461.98;116370;1180;58751;-63
2021/11/05 08:24:52;;;;;;;9.60;6.40;;;;;;;23.81;44.00;97460.55;116384;1180;71142;-65
2021/11/05 08:27:21;;;;;;;5.10;4.50;;;;;;;24.12;45.17;97468.10;116390;1180;67729;-63
2021/11/05 08:29:50;;;;;;;7.00;5.40;;;;;;;24.50;44.36;97465.19;116326;1180;69701;-66
2021/11/05 08:32:19;;;;;;;7.00;5.10;;;;;;;24.65;43.79;97451.80;116418;1180;58734;-64
2021/11/05 08:34:48;;;;;;;6.50;5.40;;;;;;;24.69;43.01;97457.73;116291;1180;58726;-64
2021/11/05 08:37:17;;;;;;;7.30;4.80;;;;;;;24.71;43.48;97462.10;116277;1182;71140;-66
2021/11/05 08:39:47;;;;;;;6.20;4.00;;;;;;;25.01;43.38;97469.70;116372;1181;68386;-64
2021/11/05 08:42:16;;;;;;;5.80;4.80;;;;;;;25.35;41.79;97468.44;116324;1181;69314;-64
2021/11/05 08:44:45;;;;;;;;;;;;;;;25.80;41.20;97471.52;116356;1180;58753;-64
2021/11/05 08:47:14;;;;;;;9.60;6.20;;;;;;;25.89;39.66;97473.22;116396;1181;58766;-63
2021/11/05 08:49:43;;;;;;;;;;;;;;;25.79;39.45;97467.00;116330;1184;70809;-64
2021/11/05 08:52:13;;;;;;;6.30;4.70;;;;;;;26.02;41.07;97468.55;116295;1180;67667;-65
2021/11/05 08:54:42;;;;;;;6.00;4.50;;;;;;;26.33;41.22;97467.33;116383;1180;68592;-64
2021/11/05 08:57:12;;;;;;;7.40;5.00;;;;;;;26.43;41.18;97470.17;116319;1184;58782;-64
2021/11/05 08:59:41;;;;;;;8.70;5.10;;;;;;;26.47;39.15;97470.48;116355;1180;58738;-65
2021/11/05 09:02:10;;;;;;;;;;;;;;;26.69;37.74;97475.92;116325;1181;69583;-65
2021/11/05 09:04:39;;;;;;;7.90;6.60;;;;;;;26.64;38.15;97472.41;116412;1180;68234;-66
2021/11/05 09:07:08;;;;;;;7.30;6.50;;;;;;;25.77;39.01;97463.02;116333;1180;69010;-65
2021/11/05 09:09:40;;;;;;;9.70;6.90;;;;;;;25.81;39.05;97456.03;116351;1180;59181;-64
2021/11/05 09:12:16;;;;;;;7.20;5.70;;;;;;;25.91;39.87;97452.44;116368;1181;58689;-65
2021/11/05 09:14:45;;;;;;;7.10;4.40;;;;;;;26.68;39.69;97452.98;116378;1181;71182;-64
2021/11/05 09:17:15;;;;;;;8.30;6.10;;;;;;;27.33;37.88;97449.02;116386;1180;68435;-64
2021/11/05 09:19:44;;;;;;;;;;;;;;;27.07;38.14;97458.20;116316;1181;69305;-64
2021/11/05 09:22:13;;;;;;;6.30;4.80;;;;;;;27.35;38.36;97449.59;116346;1180;58787;-63
2021/11/05 09:24:43;;;;;;;6.40;4.40;;;;;;;27.65;37.83;97442.46;116333;1180;58696;-65
2021/11/05 09:27:12;;;;;;;;;;;;;;;28.17;37.06;97436.30;116342;1180;70602;-65
2021/11/05 09:29:41;;;;;;;7.70;5.70;;;;;;;28.88;36.44;97435.89;116349;1180;68914;-65
2021/11/05 09:32:10;;;;;;;7.10;4.90;;;;;;;29.48;35.28;97431.84;116355;1180;69195;-64
2021/11/05 09:34:40;;;;;;;5.70;4.60;;;;;;;29.57;34.54;97422.20;116316;1179;59159;-63
2021/11/05 09:37:08;;;;;;;;;;;;;;;29.80;34.25;97415.39;116366;1180;59060;-64
2021/11/05 09:39:38;;;;;;;5.30;4.20;;;;;;;30.26;33.80;97421.78;116318;1180;70605;-63
2021/11/05 09:42:07;;;;;;;5.20;4.70;;;;;;;30.71;32.59;97418.83;116370;1180;68300;-65
2021/11/05 09:44:38;;;;;;;4.80;4.20;;;;;;;31.12;32.26;97417.17;116402;1180;69974;-64
2021/11/05 09:47:08;;;;;;;5.20;3.70;;;;;;;31.18;30.79;97406.83;116367;1181;58737;-63
2021/11/05 09:49:37;;;;;;;;;;;;;;;31.02;31.20;97406.80;116322;1181;58859;-65
2021/11/05 09:52:06;;;;;;;4.80;3.70;;;;;;;30.93;32.43;97405.88;116340;1180;70491;-65
2021/11/05 09:54:39;;;;;;;5.10;3.80;;;;;;;31.21;31.22;97400.35;116299;1183;68816;-65
2021/11/05 09:57:09;;;;;;;4.40;3.30;;;;;;;31.53;30.63;97392.65;116384;1180;69005;-65
2021/11/05 09:59:38;;;;;;;5.40;3.30;;;;;;;31.74;30.22;97385.98;116315;1180;59208;-65
2021/11/05 10:02:11;;;;;;;6.20;3.80;;;;;;;31.92;29.65;97389.73;116280;1183;58832;-65
2021/11/05 10:04:40;;;;;;;4.10;2.80;;;;;;;31.80;28.79;97395.93;116413;1180;71248;-63
2021/11/05 10:07:11;;;;;;;4.90;2.80;;;;;;;31.94;29.79;97393.77;116287;1181;68812;-63
2021/11/05 10:09:43;;;;;;;3.80;2.50;;;;;;;32.01;29.28;97392.52;116303;1180;70309;-64
2021/11/05 10:12:18;;;;;;;3.70;2.40;;;;;;;31.96;29.04;97389.95;116320;1180;58745;-64
2021/11/05 10:14:57;;;;;;;3.90;2.80;;;;;;;31.83;29.06;97386.96;116330;1180;58746;-64
2021/11/05 10:17:26;;;;;;;4.40;2.60;;;;;;;31.77;29.22;97380.84;116318;1180;71181;-63
2021/11/05 10:20:00;;;;;;;3.90;2.60;;;;;;;31.75;29.38;97376.44;116284;1180;68219;-63
2021/11/05 10:22:40;;;;;;;4.60;2.40;;;;;;;31.91;29.31;97373.99;116319;1180;69212;-65
2021/11/05 10:25:25;;;;;;;4.20;2.80;;;;;;;32.10;28.80;97373.56;116274;1180;58717;-64
2021/11/05 10:28:21;;;;;;;2.90;2.30;;;;;;;32.10;28.28;97377.89;116348;1180;58805;-63
2021/11/05 10:31:00;;;;;;;3.50;2.40;;;;;;;31.84;27.87;97377.73;116355;1180;71247;-65
2021/11/05 10:33:40;;;;;;;3.70;2.30;;;;;;;31.65;28.55;97379.48;116336;1180;67764;-64
2021/11/05 10:36:13;;;;;;;3.60;2.10;;;;;;;31.65;28.62;97386.95;116406;1180;69478;-65
2021/11/05 10:38:42;;;;;;;2.60;1.80;;;;;;;31.61;28.48;97387.63;116454;1180;58727;-63
2021/11/05 10:41:21;;;;;;;2.40;1.40;;;;;;;31.75;28.22;97382.60;116435;1180;58748;-63
2021/11/05 10:43:54;;;;;;;2.10;1.50;;;;;;;31.95;27.71;97374.65;116381;1180;70031;-64
2021/11/05 10:46:26;;;;;;;2.50;1.70;;;;;;;31.73;27.54;97365.67;116425;1180;68119;-65
2021/11/05 10:48:58;;;;;;;2.10;1.80;;;;;;;31.88;27.21;97365.18;116383;1180;69303;-65
2021/11/05 10:51:30;;;;;;;2.90;2.30;;;;;;;32.18;26.94;97362.19;116425;1181;58756;-65
2021/11/05 10:54:01;;;;;;;2.70;1.90;;;;;;;32.49;26.22;97359.56;116360;1180;58748;-64
2021/11/05 10:56:34;;;;;;;2.60;1.80;;;;;;;32.81;26.11;97365.22;116249;1180;70526;-64
2021/11/05 10:59:06;;;;;;;2.70;1.50;;;;;;;33.02;25.33;97362.41;116366;1180;68128;-65
2021/11/05 11:01:39;;;;;;;2.10;1.40;;;;;;;33.27;24.67;97358.86;116321;1181;69245;-64
2021/11/05 11:04:11;;;;;;;2.50;1.20;;;;;;;33.38;24.22;97367.30;116369;1180;58774;-64
2021/11/05 11:06:44;;;;;;;1.90;1.40;;;;;;;33.74;24.24;97369.95;116325;1180;58759;-63
2021/11/05 11:09:19;;;;;;;2.10;1.40;;;;;;;34.07;23.85;97374.25;116352;1180;71151;-65
2021/11/05 11:11:52;;;;;;;1.80;1.20;;;;;;;34.11;23.24;97361.30;116336;1181;68434;-65
2021/11/05 11:14:39;;;;;;;1.80;1.10;;;;;;;33.78;23.38;97355.83;116424;1180;69510;-65
2021/11/05 11:17:13;;;;;;;1.70;1.10;;;;;;;33.61;23.75;97357.35;116325;1180;58815;-65
2021/11/05 11:19:47;;;;;;;1.90;1.30;;;;;;;33.63;23.66;97355.80;116382;1181;58705;-62
2021/11/05 11:22:17;;;;;;;3.10;1.70;;;;;;;33.97;23.42;97359.38;116393;1180;71055;-64
2021/11/05 11:24:46;;;;;;;2.40;1.50;;;;;;;34.14;23.00;97359.80;116240;1182;67907;-64
2021/11/05 11:27:16;;;;;;;1.10;0.80;;;;;;;34.48;23.30;97357.84;116340;1180;69233;-64
2021/11/05 11:29:56;;;;;;;2.30;1.10;;;;;;;34.57;22.46;97356.36;116346;1180;59220;-65
2021/11/05 11:32:26;;;;;;;1.80;1.10;;;;;;;33.95;22.78;97356.96;116422;1180;58709;-64
2021/11/05 11:34:55;;;;;;;2.30;1.10;;;;;;;33.53;23.17;97354.05;116422;1180;70967;-63
2021/11/05 11:37:25;;;;;;;2.80;0.90;;;;;;;33.18;23.30;97353.77;116368;1180;68373;-64
2021/11/05 11:39:55;;;;;;;1.50;0.90;;;;;;;33.47;22.73;97353.77;116469;1180;69494;-64